createdAt,value
2023-02-26T00:02:37.252Z,100835.47
2023-02-26T00:07:39.177Z,100838.31
2023-02-26T00:12:41.865Z,100841.88
2023-02-26T00:17:49.004Z,100857.91
2023-02-26T00:22:51.943Z,100861.88
2023-02-26T00:27:54.170Z,100869.66
2023-02-26T00:32:57.807Z,100875.16
2023-02-26T00:38:02.560Z,100882.34
2023-02-26T00:43:05.083Z,100885.50
2023-02-26T00:48:17.795Z,100892.13
2023-02-26T00:53:22.012Z,100889.34
2023-02-26T00:58:23.931Z,100900.28
2023-02-26T01:03:27.529Z,100903.38
2023-02-26T01:08:31.800Z,100902.34
2023-02-26T01:13:33.807Z,100907.25
2023-02-26T01:18:39.298Z,100914.81
2023-02-26T01:23:41.866Z,100917.31
2023-02-26T01:28:44.094Z,100925.09
2023-02-26T01:33:50.074Z,100932.38
2023-02-26T01:38:53.558Z,100935.56
2023-02-26T01:44:00.632Z,100949.66
2023-02-26T01:49:04.769Z,100947.31
2023-02-26T01:54:06.500Z,100952.56
2023-02-26T01:59:08.656Z,100960.50
2023-02-26T02:04:14.390Z,100966.75
2023-02-26T02:09:16.264Z,100975.56
2023-02-26T02:14:20.982Z,100972.50
2023-02-26T02:19:56.976Z,100971.88
2023-02-26T02:25:10.536Z,100977.19
2023-02-26T02:30:21.945Z,100984.84
2023-02-26T02:35:26.250Z,100985.91
2023-02-26T02:40:29.258Z,100997.88
2023-02-26T02:45:34.581Z,100999.88
2023-02-26T02:50:40.112Z,101003.41
2023-02-26T02:55:43.728Z,101013.78
2023-02-26T03:00:49.697Z,101023.09
2023-02-26T03:05:52.737Z,101031.03
2023-02-26T03:10:55.715Z,101028.25
2023-02-26T03:16:03.475Z,101034.19
2023-02-26T03:21:09.990Z,101039.28
2023-02-26T03:26:14.472Z,101041.19
2023-02-26T03:31:19.230Z,101055.66
2023-02-26T03:36:28.236Z,101061.78
2023-02-26T03:41:44.106Z,101064.25
2023-02-26T03:46:48.151Z,101073.91
2023-02-26T03:51:52.454Z,101079.00
2023-02-26T03:57:17.598Z,101087.72
2023-02-26T04:02:38.242Z,101101.47
2023-02-26T04:07:49.261Z,101101.56
2023-02-26T04:12:50.924Z,101104.19
2023-02-26T04:17:52.696Z,101110.28
2023-02-26T04:22:55.903Z,101124.84
2023-02-26T04:27:58.431Z,101128.53
2023-02-26T04:33:00.283Z,101132.94
2023-02-26T04:38:03.477Z,101145.75
2023-02-26T04:43:05.208Z,101150.19
2023-02-26T04:48:13.390Z,101153.13
2023-02-26T04:53:16.643Z,101160.91
2023-02-26T04:58:18.350Z,101160.91
2023-02-26T05:03:20.841Z,101170.44
2023-02-26T05:08:24.149Z,101172.38
2023-02-26T05:13:26.690Z,101187.47
2023-02-26T05:18:28.401Z,101189.47
2023-02-26T05:23:31.403Z,101195.41
2023-02-26T05:28:33.928Z,101201.44
2023-02-26T05:33:35.976Z,101208.94
2023-02-26T05:38:38.967Z,101211.97
2023-02-26T05:43:41.802Z,101229.22
2023-02-26T05:48:45.705Z,101236.78
2023-02-26T05:53:48.938Z,101253.91
2023-02-26T05:58:50.631Z,101256.19
2023-02-26T06:03:52.338Z,101267.97
2023-02-26T06:08:55.363Z,101281.59
2023-02-26T06:13:57.061Z,101283.16
2023-02-26T06:18:58.764Z,101296.47
2023-02-26T06:24:01.750Z,101307.97
2023-02-26T06:29:03.515Z,101305.41
2023-02-26T06:34:05.221Z,101310.78
2023-02-26T06:39:08.281Z,101315.22
2023-02-26T06:44:10.035Z,101318.09
2023-02-26T06:49:11.715Z,101325.78
2023-02-26T06:54:14.874Z,101339.88
2023-02-26T06:59:16.554Z,101348.53
2023-02-26T07:04:20.615Z,101361.59
2023-02-26T07:09:23.749Z,101373.41
2023-02-26T07:14:25.602Z,101386.97
2023-02-26T07:19:27.270Z,101397.97
2023-02-26T07:24:30.294Z,101404.13
2023-02-26T07:29:32.126Z,101402.44
2023-02-26T07:34:34.150Z,101423.47
2023-02-26T07:39:37.146Z,101432.22
2023-02-26T07:44:38.993Z,101428.34
2023-02-26T07:49:40.984Z,101447.06
2023-02-26T07:54:43.969Z,101442.84
2023-02-26T07:59:45.609Z,101441.03
2023-02-26T08:04:47.269Z,101438.19
2023-02-26T08:09:50.302Z,101453.28
2023-02-26T08:14:52.000Z,101463.25
2023-02-26T08:19:53.706Z,101462.47
2023-02-26T08:24:56.660Z,101481.88
2023-02-26T08:29:58.311Z,101487.22
2023-02-26T08:34:59.962Z,101490.91
2023-02-26T08:40:03.983Z,101489.97
2023-02-26T08:45:06.766Z,101501.34
2023-02-26T08:50:09.922Z,101504.53
2023-02-26T08:55:12.920Z,101500.72
2023-02-26T09:00:18.594Z,101507.13
2023-02-26T09:05:20.357Z,101521.41
2023-02-26T09:10:23.400Z,101523.38
2023-02-26T09:15:25.053Z,101525.66
2023-02-26T09:20:29.158Z,101523.34
2023-02-26T09:25:32.193Z,101524.50
2023-02-26T09:30:33.918Z,101520.69
2023-02-26T09:35:35.589Z,101516.66
2023-02-26T09:40:43.382Z,101533.28
2023-02-26T09:45:45.283Z,101529.25
2023-02-26T09:50:48.340Z,101535.66
2023-02-26T09:55:52.108Z,101540.56
2023-02-26T10:01:00.359Z,101543.94
2023-02-26T10:06:13.177Z,101558.13
2023-02-26T10:11:20.339Z,101554.69
2023-02-26T10:16:26.340Z,101559.00
2023-02-26T10:21:32.476Z,101562.47
2023-02-26T10:26:37.623Z,101562.72
2023-02-26T10:31:42.883Z,101570.53
2023-02-26T10:36:48.409Z,101572.78
2023-02-26T10:41:51.437Z,101594.16
2023-02-26T10:46:55.255Z,101589.72
2023-02-26T10:51:57.217Z,101590.72
2023-02-26T10:57:00.736Z,101582.81
2023-02-26T11:02:02.370Z,101597.69
2023-02-26T11:07:05.110Z,101608.47
2023-02-26T11:12:12.962Z,101611.94
2023-02-26T11:17:17.345Z,101606.69
2023-02-26T11:22:19.132Z,101616.69
2023-02-26T11:27:24.106Z,101632.16
2023-02-26T11:32:29.981Z,101636.25
2023-02-26T11:37:34.424Z,101635.28
2023-02-26T11:42:38.354Z,101635.94
2023-02-26T11:47:40.075Z,101644.28
2023-02-26T11:52:42.490Z,101645.06
2023-02-26T11:57:45.545Z,101636.31
2023-02-26T12:02:47.285Z,101641.22
2023-02-26T12:07:49.021Z,101644.06
2023-02-26T12:13:02.057Z,101635.25
2023-02-26T12:18:40.582Z,101638.72
2023-02-26T12:24:10.304Z,101637.34
2023-02-26T12:29:32.830Z,101646.25
2023-02-26T12:34:49.178Z,101651.75
2023-02-26T12:39:58.332Z,101667.22
2023-02-26T12:45:11.620Z,101663.13
2023-02-26T12:50:28.436Z,101668.88
2023-02-26T12:55:34.704Z,101665.41
2023-02-26T13:00:51.770Z,101661.00
2023-02-26T13:06:07.972Z,101659.44
2023-02-26T13:11:16.533Z,101659.94
2023-02-26T13:16:26.389Z,101662.25
2023-02-26T13:21:30.637Z,101663.47
2023-02-26T13:26:32.493Z,101660.22
2023-02-26T13:31:38.546Z,101655.94
2023-02-26T13:36:41.406Z,101659.47
2023-02-26T13:41:46.576Z,101658.25
2023-02-26T13:46:56.875Z,101661.78
2023-02-26T13:51:58.694Z,101652.56
2023-02-26T13:57:08.846Z,101658.81
2023-02-26T14:02:36.950Z,101662.50
2023-02-26T14:07:49.345Z,101656.94
2023-02-26T14:13:02.993Z,101664.44
2023-02-26T14:18:21.430Z,101669.31
2023-02-26T14:23:35.787Z,101662.44
2023-02-26T14:28:43.075Z,101660.81
2023-02-26T14:33:47.767Z,101660.41
2023-02-26T14:38:49.642Z,101668.88
2023-02-26T14:43:56.035Z,101666.44
2023-02-26T14:48:59.015Z,101669.91
2023-02-26T14:54:28.321Z,101670.81
2023-02-26T14:59:48.272Z,101679.41
2023-02-26T15:05:12.204Z,101677.44
2023-02-26T15:10:20.773Z,101681.41
2023-02-26T15:15:27.781Z,101683.69
2023-02-26T15:20:35.111Z,101689.66
2023-02-26T15:25:38.775Z,101695.78
2023-02-26T15:30:40.505Z,101703.97
2023-02-26T15:35:43.561Z,101712.34
2023-02-26T15:40:45.270Z,101707.63
2023-02-26T15:45:47.539Z,101719.84
2023-02-26T15:50:53.615Z,101722.00
2023-02-26T15:55:56.109Z,101723.34
2023-02-26T16:01:00.516Z,101728.22
2023-02-26T16:06:04.254Z,101735.75
2023-02-26T16:11:06.907Z,101733.41
2023-02-26T16:16:11.649Z,101732.16
2023-02-26T16:21:19.466Z,101746.44
2023-02-26T16:26:23.079Z,101748.03
2023-02-26T16:31:25.759Z,101748.53
2023-02-26T16:36:30.681Z,101757.91
2023-02-26T16:41:34.959Z,101766.16
2023-02-26T16:46:42.451Z,101772.47
2023-02-26T16:51:45.511Z,101779.09
2023-02-26T16:56:48.481Z,101787.31
2023-02-26T17:01:52.810Z,101806.13
2023-02-26T17:06:55.807Z,101799.13
2023-02-26T17:12:05.290Z,101803.69
2023-02-26T17:17:07.085Z,101806.00
2023-02-26T17:22:13.652Z,101807.34
2023-02-26T17:27:17.783Z,101811.34
2023-02-26T17:32:20.685Z,101823.63
2023-02-26T17:37:24.288Z,101825.19
2023-02-26T17:42:26.021Z,101836.69
2023-02-26T17:47:27.685Z,101833.88
2023-02-26T17:52:31.274Z,101841.06
2023-02-26T17:57:32.932Z,101853.31
2023-02-26T18:02:34.644Z,101861.22
2023-02-26T18:07:37.707Z,101870.50
2023-02-26T18:12:39.415Z,101864.31
2023-02-26T18:17:41.158Z,101861.78
2023-02-26T18:22:44.249Z,101874.22
2023-02-26T18:27:45.948Z,101875.78
2023-02-26T18:32:47.679Z,101880.28
2023-02-26T18:37:51.096Z,101883.13
2023-02-26T18:42:52.760Z,101879.56
2023-02-26T18:47:54.736Z,101880.44
2023-02-26T18:52:57.940Z,101879.66
2023-02-26T18:57:59.634Z,101887.69
2023-02-26T19:03:01.365Z,101883.00
2023-02-26T19:08:04.439Z,101900.13
2023-02-26T19:13:06.230Z,101906.88
2023-02-26T19:18:08.358Z,101904.59
2023-02-26T19:23:11.582Z,101902.97
2023-02-26T19:28:13.463Z,101911.19
2023-02-26T19:33:16.150Z,101914.59
2023-02-26T19:38:19.259Z,101919.41
2023-02-26T19:43:23.225Z,101922.44
2023-02-26T19:48:25.879Z,101926.63
2023-02-26T19:53:30.454Z,101931.97
2023-02-26T19:58:32.883Z,101943.81
2023-02-26T20:03:34.566Z,101938.03
2023-02-26T20:08:37.565Z,101945.66
2023-02-26T20:13:39.213Z,101949.38
2023-02-26T20:18:40.994Z,101960.75
2023-02-26T20:23:44.048Z,101959.25
2023-02-26T20:28:45.762Z,101961.75
2023-02-26T20:33:47.559Z,101972.66
2023-02-26T20:38:51.157Z,101977.19
2023-02-26T20:43:52.884Z,101988.63
2023-02-26T20:48:54.602Z,101981.31
2023-02-26T20:53:57.672Z,101992.06
2023-02-26T20:58:59.372Z,101986.44
2023-02-26T21:04:01.919Z,101998.44
2023-02-26T21:09:05.384Z,102003.50
2023-02-26T21:14:07.453Z,102007.47
2023-02-26T21:19:09.169Z,102000.25
2023-02-26T21:24:12.233Z,101997.38
2023-02-26T21:29:13.914Z,102010.38
2023-02-26T21:34:32.709Z,102013.38
2023-02-26T21:39:37.973Z,102021.09
2023-02-26T21:44:39.715Z,102014.88
2023-02-26T21:49:41.382Z,102021.09
2023-02-26T21:54:44.369Z,102023.28
2023-02-26T21:59:46.030Z,102031.50
2023-02-26T22:04:47.789Z,102022.63
2023-02-26T22:09:51.683Z,102021.44
2023-02-26T22:14:53.360Z,102024.41
2023-02-26T22:19:55.052Z,102028.34
2023-02-26T22:24:58.007Z,102016.94
2023-02-26T22:29:59.699Z,102024.88
2023-02-26T22:35:01.483Z,102028.63
2023-02-26T22:40:05.371Z,102036.03
2023-02-26T22:45:08.589Z,102044.50
2023-02-26T22:50:11.566Z,102042.19
2023-02-26T22:55:14.649Z,102050.13
2023-02-26T23:00:20.337Z,102055.47
2023-02-26T23:05:22.421Z,102054.38
2023-02-26T23:10:25.444Z,102052.00
2023-02-26T23:15:28.025Z,102054.56
2023-02-26T23:20:29.796Z,102053.50
2023-02-26T23:25:32.834Z,102054.84
2023-02-26T23:30:34.569Z,102062.66
2023-02-26T23:35:36.393Z,102057.34
2023-02-26T23:40:39.412Z,102062.81
2023-02-26T23:45:41.095Z,102071.22
2023-02-26T23:50:42.775Z,102073.59
2023-02-26T23:55:46.258Z,102073.00
